Etusivu
METAR-TAF:

METAR-TAF

Lentoasemat :

Rochelle Municipal Airport (Koritz Field)

Rochelle, Illinois, Yhdysvallat

Leveyspiiri: 41-53-35N, Pituuspiiri: 089-04-42W, korkeus merenpinnasta: 238 m

Tämänhetkinen sää

Tämä raportti tehtiin 8 minuuttia sitten, kello 09.55 UTC
tyyntä
Lämpötila 3°C
Kosteus 93%
Ilmanpaine 1017 hPa
Näkyvyys: 16.1 km
selkeää

METAR: KRPJ 170955Z AUTO 00000KT 10SM CLR 03/02 A3004 RMK AO2 T00270023

Aika: 05:03 (10:03 UTC)


TAF: puuttuu

Säähavainnot ja -ennusteet yli 4000 lentoasemalta (METAR- ja TAF-raportit).

Käytössä olevat sääasemat on merkitty karttaan keltaisilla ja punaisilla pisteillä.

Aseta hiiri pisteen päälle nähdäksesi sääaseman nimen.

Klikkaa sitten nähdäksesi säähavainnot ja -ennusteet.

Kartan vaihtaminen: klikkaa mustalla rastilla varustettuja vihreitä pisteitä, niin voit zoomata sisään; viivalla varustettua vihreää pistettä, niin voit zoomata ulos tai vihreitä nuolia, niin pääset viereisille kartoille.


METAR-TAF: